createdAt,value
2022-10-15T00:02:38.007Z,8.54
2022-10-15T00:05:13.453Z,8.47
2022-10-15T00:07:48.503Z,8.37
2022-10-15T00:10:28.395Z,8.27
2022-10-15T00:13:09.361Z,8.22
2022-10-15T00:15:39.979Z,8.20
2022-10-15T00:18:11.433Z,8.14
2022-10-15T00:20:51.452Z,8.22
2022-10-15T00:23:29.226Z,8.10
2022-10-15T00:26:42.496Z,8.00
2022-10-15T00:29:24.229Z,7.95
2022-10-15T00:32:09.158Z,7.90
2022-10-15T00:35:01.298Z,7.88
2022-10-15T00:37:48.728Z,7.73
2022-10-15T00:40:24.067Z,7.63
2022-10-15T00:43:12.456Z,7.54
2022-10-15T00:45:41.975Z,7.36
2022-10-15T00:48:19.951Z,7.40
2022-10-15T00:50:47.126Z,7.36
2022-10-15T00:53:19.160Z,7.34
2022-10-15T00:55:54.137Z,7.30
2022-10-15T00:58:31.776Z,7.27
2022-10-15T01:01:01.678Z,7.12
2022-10-15T01:03:39.948Z,7.09
2022-10-15T01:06:15.634Z,7.07
2022-10-15T01:08:46.417Z,7.07
2022-10-15T01:11:41.206Z,6.98
2022-10-15T01:14:18.453Z,6.93
2022-10-15T01:17:05.380Z,6.83
2022-10-15T01:20:15.831Z,6.81
2022-10-15T01:23:26.549Z,6.78
2022-10-15T01:26:27.066Z,6.73
2022-10-15T01:29:30.863Z,6.72
2022-10-15T01:32:19.797Z,6.69
2022-10-15T01:34:57.535Z,6.64
2022-10-15T01:37:44.860Z,6.64
2022-10-15T01:40:51.470Z,6.65
2022-10-15T01:43:46.961Z,6.68
2022-10-15T01:46:38.378Z,6.72
2022-10-15T01:49:28.153Z,6.77
2022-10-15T01:52:12.144Z,6.78
2022-10-15T01:54:42.097Z,6.75
2022-10-15T01:57:11.307Z,6.72
2022-10-15T01:59:54.489Z,6.73
2022-10-15T02:02:30.587Z,6.64
2022-10-15T02:05:02.504Z,6.64
2022-10-15T02:08:12.904Z,6.59
2022-10-15T02:11:16.516Z,6.57
2022-10-15T02:14:03.307Z,6.52
2022-10-15T02:16:54.847Z,6.52
2022-10-15T02:19:45.963Z,6.54
2022-10-15T02:22:37.631Z,6.44
2022-10-15T02:25:18.527Z,6.42
2022-10-15T02:27:57.457Z,6.46
2022-10-15T02:30:38.140Z,6.42
2022-10-15T02:33:21.280Z,6.40
2022-10-15T02:35:52.514Z,6.39
2022-10-15T02:38:32.169Z,6.40
2022-10-15T02:41:15.405Z,6.37
2022-10-15T02:43:54.097Z,6.39
2022-10-15T02:46:28.677Z,6.42
2022-10-15T02:49:06.901Z,6.39
2022-10-15T02:51:39.822Z,6.35
2022-10-15T02:54:17.642Z,6.36
2022-10-15T02:57:10.217Z,6.34
2022-10-15T02:59:49.165Z,6.37
2022-10-15T03:02:30.385Z,6.38
2022-10-15T03:05:03.058Z,6.36
2022-10-15T03:07:34.880Z,6.34
2022-10-15T03:10:18.880Z,6.34
2022-10-15T03:12:46.942Z,6.25
2022-10-15T03:15:22.852Z,6.34
2022-10-15T03:18:04.408Z,6.27
2022-10-15T03:20:44.730Z,6.37
2022-10-15T03:23:29.085Z,6.23
2022-10-15T03:26:21.734Z,6.31
2022-10-15T03:29:01.446Z,6.21
2022-10-15T03:31:47.479Z,6.22
2022-10-15T03:34:34.796Z,6.19
2022-10-15T03:37:19.509Z,6.15
2022-10-15T03:39:53.493Z,6.19
2022-10-15T03:42:23.647Z,6.14
2022-10-15T03:44:59.567Z,6.13
2022-10-15T03:47:35.423Z,6.11
2022-10-15T03:50:19.519Z,6.08
2022-10-15T03:52:57.274Z,6.08
2022-10-15T03:55:38.295Z,6.06
2022-10-15T03:58:26.190Z,6.03
2022-10-15T04:01:19.638Z,6.03
2022-10-15T04:03:58.476Z,6.00
2022-10-15T04:06:45.144Z,5.99
2022-10-15T04:09:23.142Z,6.00
2022-10-15T04:12:14.510Z,5.95
2022-10-15T04:14:47.112Z,5.97
2022-10-15T04:17:23.295Z,5.96
2022-10-15T04:19:59.676Z,5.95
2022-10-15T04:22:39.406Z,5.85
2022-10-15T04:25:21.158Z,5.99
2022-10-15T04:27:59.621Z,5.93
2022-10-15T04:30:50.223Z,6.05
2022-10-15T04:36:50.119Z,6.49
2022-10-15T04:39:27.937Z,6.66
2022-10-15T04:42:00.105Z,6.91
2022-10-15T04:44:53.869Z,6.94
2022-10-15T04:47:32.423Z,6.95
2022-10-15T04:50:25.629Z,6.88
2022-10-15T04:53:14.214Z,6.78
2022-10-15T04:55:55.883Z,6.66
2022-10-15T04:58:32.564Z,6.58
2022-10-15T05:01:06.761Z,6.46
2022-10-15T05:04:00.446Z,6.43
2022-10-15T05:06:39.082Z,6.39
2022-10-15T05:09:23.745Z,6.47
2022-10-15T05:11:58.157Z,6.37
2022-10-15T05:14:39.041Z,6.38
2022-10-15T05:17:15.691Z,6.45
2022-10-15T05:19:47.610Z,6.49
2022-10-15T05:22:22.141Z,6.55
2022-10-15T05:24:53.231Z,6.57
2022-10-15T05:27:48.126Z,6.59
2022-10-15T05:30:26.267Z,6.64
2022-10-15T05:32:57.785Z,6.70
2022-10-15T05:35:31.449Z,6.76
2022-10-15T05:38:11.636Z,6.82
2022-10-15T05:40:41.620Z,6.87
2022-10-15T05:43:21.841Z,6.99
2022-10-15T05:45:59.910Z,6.99
2022-10-15T05:48:26.975Z,7.05
2022-10-15T05:50:56.306Z,7.12
2022-10-15T05:53:43.835Z,7.23
2022-10-15T05:56:23.243Z,7.40
2022-10-15T05:58:53.051Z,7.39
2022-10-15T06:01:22.156Z,7.52
2022-10-15T06:03:57.465Z,7.46
2022-10-15T06:06:36.515Z,7.43
2022-10-15T06:09:08.983Z,7.61
2022-10-15T06:11:46.983Z,7.91
2022-10-15T06:14:25.487Z,8.12
2022-10-15T06:17:11.395Z,8.29
2022-10-15T06:19:54.551Z,8.60
2022-10-15T06:22:27.063Z,8.90
2022-10-15T06:24:56.633Z,9.24
2022-10-15T06:27:36.500Z,9.54
2022-10-15T06:30:21.495Z,9.78
2022-10-15T06:32:59.681Z,9.86
2022-10-15T06:35:39.365Z,9.97
2022-10-15T06:38:22.893Z,10.17
2022-10-15T06:41:08.874Z,10.34
2022-10-15T06:43:46.811Z,10.37
2022-10-15T06:46:27.433Z,10.42
2022-10-15T06:49:09.897Z,10.49
2022-10-15T06:52:03.854Z,10.67
2022-10-15T06:54:39.072Z,10.86
2022-10-15T06:57:25.514Z,11.01
2022-10-15T07:00:09.503Z,11.01
2022-10-15T07:02:52.294Z,10.94
2022-10-15T07:05:34.392Z,11.18
2022-10-15T07:08:18.407Z,11.51
2022-10-15T07:11:03.744Z,11.72
2022-10-15T07:13:46.561Z,12.04
2022-10-15T07:16:27.458Z,12.10
2022-10-15T07:19:10.614Z,12.11
2022-10-15T07:21:46.398Z,12.21
2022-10-15T07:24:35.051Z,12.30
2022-10-15T07:27:19.318Z,12.38
2022-10-15T07:30:07.034Z,12.48
2022-10-15T07:32:42.669Z,12.52
2022-10-15T07:35:22.773Z,12.64
2022-10-15T07:38:06.055Z,12.89
2022-10-15T07:40:49.562Z,12.98
2022-10-15T07:43:39.917Z,13.12
2022-10-15T07:46:22.631Z,13.10
2022-10-15T07:49:11.792Z,13.34
2022-10-15T07:51:46.516Z,13.47
2022-10-15T07:54:21.440Z,13.58
2022-10-15T07:56:56.432Z,13.78
2022-10-15T07:59:36.836Z,13.88
2022-10-15T08:02:27.898Z,14.04
2022-10-15T08:05:02.451Z,14.26
2022-10-15T08:07:42.037Z,14.38
2022-10-15T08:10:24.015Z,14.47
2022-10-15T08:13:06.941Z,14.46
2022-10-15T08:15:56.304Z,14.43
2022-10-15T08:18:37.967Z,14.40
2022-10-15T08:21:19.244Z,14.58
2022-10-15T08:23:52.176Z,14.57
2022-10-15T08:26:28.281Z,14.72
2022-10-15T08:29:11.644Z,14.68
2022-10-15T08:31:52.295Z,14.67
2022-10-15T08:34:34.820Z,14.67
2022-10-15T08:37:10.755Z,14.91
2022-10-15T08:39:48.747Z,14.95
2022-10-15T08:42:41.406Z,14.96
2022-10-15T08:45:30.228Z,14.93
2022-10-15T08:48:16.662Z,15.04
2022-10-15T08:51:08.525Z,15.13
2022-10-15T08:53:55.390Z,15.30
2022-10-15T08:56:36.927Z,15.47
2022-10-15T08:59:42.706Z,15.56
2022-10-15T09:02:34.682Z,15.60
2022-10-15T09:05:24.999Z,15.40
2022-10-15T09:08:06.878Z,15.49
2022-10-15T09:10:57.911Z,15.71
2022-10-15T09:13:40.316Z,15.82
2022-10-15T09:16:34.907Z,15.96
2022-10-15T09:19:19.513Z,15.89
2022-10-15T09:21:56.289Z,16.09
2022-10-15T09:24:31.639Z,16.39
2022-10-15T09:27:38.126Z,16.48
2022-10-15T09:30:22.412Z,16.73
2022-10-15T09:32:56.648Z,16.86
2022-10-15T09:35:57.480Z,16.93
2022-10-15T09:38:52.387Z,16.92
2022-10-15T09:41:53.713Z,16.98
2022-10-15T09:44:45.942Z,16.95
2022-10-15T09:47:49.394Z,17.03
2022-10-15T09:50:30.289Z,17.06
2022-10-15T09:53:11.040Z,16.99
2022-10-15T09:55:46.067Z,16.99
2022-10-15T09:58:29.048Z,17.11
2022-10-15T10:01:19.789Z,17.02
2022-10-15T10:04:11.794Z,17.14
2022-10-15T10:06:55.468Z,17.13
2022-10-15T10:09:45.507Z,17.26
2022-10-15T10:12:26.277Z,17.31
2022-10-15T10:15:10.163Z,17.41
2022-10-15T10:17:57.139Z,17.45
2022-10-15T10:20:36.092Z,17.54
2022-10-15T10:23:34.665Z,17.83
2022-10-15T10:26:11.358Z,17.85
2022-10-15T10:29:04.656Z,17.85
2022-10-15T10:31:45.040Z,17.87
2022-10-15T10:34:41.235Z,17.94
2022-10-15T10:37:25.778Z,17.85
2022-10-15T10:40:02.903Z,17.82
2022-10-15T10:42:40.796Z,17.70
2022-10-15T10:45:50.118Z,17.87
2022-10-15T10:48:37.535Z,18.02
2022-10-15T10:51:31.043Z,18.19
2022-10-15T10:54:18.213Z,18.39
2022-10-15T10:56:54.211Z,18.28
2022-10-15T10:59:47.483Z,18.31
2022-10-15T11:02:22.524Z,18.54
2022-10-15T11:05:00.934Z,18.46
2022-10-15T11:07:41.994Z,18.54
2022-10-15T11:10:35.453Z,18.46
2022-10-15T11:13:31.274Z,18.35
2022-10-15T11:16:29.016Z,18.48
2022-10-15T11:20:13.138Z,18.41
2022-10-15T11:23:11.531Z,18.42
2022-10-15T11:26:12.336Z,18.37
2022-10-15T11:29:06.864Z,18.55
2022-10-15T11:31:55.068Z,18.42
2022-10-15T11:35:20.098Z,18.57
2022-10-15T11:38:30.089Z,18.63
2022-10-15T11:41:29.464Z,18.57
2022-10-15T11:44:18.220Z,18.53
2022-10-15T11:47:34.243Z,18.64
2022-10-15T11:50:33.587Z,18.70
2022-10-15T11:53:08.122Z,18.59
2022-10-15T11:55:54.982Z,18.53
2022-10-15T11:58:43.044Z,18.35
2022-10-15T12:01:32.665Z,18.55
2022-10-15T12:04:33.505Z,18.42
2022-10-15T12:07:10.618Z,18.43
2022-10-15T12:09:52.858Z,18.59
2022-10-15T12:12:33.433Z,18.45
2022-10-15T12:15:19.507Z,18.59
2022-10-15T12:18:05.861Z,18.62
2022-10-15T12:20:48.473Z,18.69
2022-10-15T12:23:45.121Z,18.54
2022-10-15T12:26:32.676Z,18.65
2022-10-15T12:29:23.051Z,18.78
2022-10-15T12:32:04.972Z,18.75
2022-10-15T12:34:49.369Z,18.72
2022-10-15T12:37:27.680Z,18.69
2022-10-15T12:40:29.065Z,18.56
2022-10-15T12:43:17.697Z,18.64
2022-10-15T12:46:02.950Z,18.61
2022-10-15T12:48:39.931Z,18.57
2022-10-15T12:51:24.863Z,18.58
2022-10-15T12:54:02.445Z,18.32
2022-10-15T12:56:45.364Z,18.18
2022-10-15T13:00:02.628Z,18.17
2022-10-15T13:02:38.484Z,18.13
2022-10-15T13:05:25.190Z,18.14
2022-10-15T13:08:03.003Z,18.03
2022-10-15T13:10:55.425Z,18.15
2022-10-15T13:13:33.928Z,18.22
2022-10-15T13:16:14.453Z,18.25
2022-10-15T13:18:54.048Z,18.25
2022-10-15T13:21:46.052Z,18.35
2022-10-15T13:24:24.385Z,18.24
2022-10-15T13:27:01.995Z,18.22
2022-10-15T13:29:39.576Z,18.18
2022-10-15T13:32:27.497Z,18.10
2022-10-15T13:35:09.158Z,18.08
2022-10-15T13:37:46.985Z,17.99
2022-10-15T13:40:29.549Z,17.91
2022-10-15T13:43:17.279Z,17.92
2022-10-15T13:45:57.845Z,17.83
2022-10-15T13:48:35.270Z,17.74
2022-10-15T13:51:06.035Z,17.56
2022-10-15T13:53:56.206Z,17.61
2022-10-15T13:56:33.998Z,17.63
2022-10-15T13:59:26.870Z,17.43
2022-10-15T14:02:09.254Z,17.47
2022-10-15T14:04:41.414Z,17.52
2022-10-15T14:07:27.728Z,17.41
2022-10-15T14:10:02.656Z,17.42
2022-10-15T14:12:31.861Z,17.33
2022-10-15T14:15:40.417Z,17.25
2022-10-15T14:18:22.989Z,17.14
2022-10-15T14:21:07.809Z,17.19
2022-10-15T14:23:43.098Z,17.23
2022-10-15T14:26:16.816Z,17.22
2022-10-15T14:28:58.362Z,17.22
2022-10-15T14:31:52.916Z,17.12
2022-10-15T14:34:39.429Z,17.06
2022-10-15T14:37:33.816Z,16.99
2022-10-15T14:40:14.880Z,16.95
2022-10-15T14:43:04.867Z,16.87
2022-10-15T14:45:53.700Z,16.82
2022-10-15T14:48:35.274Z,16.78
2022-10-15T14:51:19.635Z,16.76
2022-10-15T14:53:58.055Z,16.60
2022-10-15T14:56:40.140Z,16.45
2022-10-15T14:59:24.278Z,16.48
2022-10-15T15:02:04.711Z,16.37
2022-10-15T15:04:46.801Z,16.27
2022-10-15T15:07:23.737Z,16.22
2022-10-15T15:09:56.244Z,16.15
2022-10-15T15:12:31.641Z,16.15
2022-10-15T15:15:09.889Z,16.20
2022-10-15T15:17:45.075Z,16.12
2022-10-15T15:20:24.289Z,16.00
2022-10-15T15:22:55.389Z,15.95
2022-10-15T15:25:39.848Z,15.90
2022-10-15T15:28:31.627Z,15.84
2022-10-15T15:31:26.883Z,15.71
2022-10-15T15:34:08.098Z,15.57
2022-10-15T15:36:40.341Z,15.48
2022-10-15T15:39:17.515Z,15.52
2022-10-15T15:41:47.230Z,15.52
2022-10-15T15:44:26.049Z,15.50
2022-10-15T15:47:07.231Z,15.48
2022-10-15T15:49:47.902Z,15.45
2022-10-15T15:52:31.231Z,15.51
2022-10-15T15:55:11.235Z,15.52
2022-10-15T15:57:54.622Z,15.47
2022-10-15T16:00:27.896Z,15.41
2022-10-15T16:03:04.752Z,15.43
2022-10-15T16:05:52.237Z,15.46
2022-10-15T16:08:31.192Z,15.37
2022-10-15T16:11:07.535Z,15.39
2022-10-15T16:13:49.081Z,15.37
2022-10-15T16:16:24.435Z,15.43
2022-10-15T16:19:05.439Z,15.41
2022-10-15T16:21:40.869Z,15.43
2022-10-15T16:24:22.910Z,15.49
2022-10-15T16:26:52.818Z,15.34
2022-10-15T16:29:27.019Z,15.29
2022-10-15T16:31:58.857Z,15.29
2022-10-15T16:34:31.638Z,15.29
2022-10-15T16:37:04.328Z,15.26
2022-10-15T16:39:36.720Z,15.19
2022-10-15T16:42:13.671Z,15.09
2022-10-15T16:44:51.404Z,15.05
2022-10-15T16:47:21.490Z,15.06
2022-10-15T16:49:59.412Z,15.02
2022-10-15T16:52:30.342Z,14.98
2022-10-15T16:55:05.521Z,14.93
2022-10-15T16:57:42.418Z,14.91
2022-10-15T17:00:17.364Z,14.81
2022-10-15T17:02:50.862Z,14.74
2022-10-15T17:05:27.324Z,14.78
2022-10-15T17:08:08.170Z,14.79
2022-10-15T17:10:55.232Z,14.67
2022-10-15T17:13:34.108Z,14.51
2022-10-15T17:16:22.505Z,14.48
2022-10-15T17:19:08.892Z,14.53
2022-10-15T17:21:47.839Z,14.49
2022-10-15T17:24:24.181Z,14.46
2022-10-15T17:27:03.551Z,14.50
2022-10-15T17:29:36.502Z,14.50
2022-10-15T17:32:11.663Z,14.53
2022-10-15T17:34:42.865Z,14.43
2022-10-15T17:37:14.998Z,14.45
2022-10-15T17:39:52.854Z,14.32
2022-10-15T17:42:24.404Z,14.25
2022-10-15T17:45:11.578Z,14.27
2022-10-15T17:47:51.932Z,14.23
2022-10-15T17:50:24.299Z,14.24
2022-10-15T17:52:55.323Z,14.19
2022-10-15T17:55:30.996Z,14.10
2022-10-15T17:58:08.414Z,14.04
2022-10-15T18:00:46.371Z,14.07
2022-10-15T18:03:22.590Z,14.02
2022-10-15T18:05:56.222Z,14.06
2022-10-15T18:08:31.378Z,14.10
2022-10-15T18:11:09.783Z,14.07
2022-10-15T18:13:37.533Z,14.16
2022-10-15T18:16:08.425Z,14.04
2022-10-15T18:18:46.182Z,14.10
2022-10-15T18:21:23.368Z,14.06
2022-10-15T18:24:01.569Z,14.16
2022-10-15T18:26:35.545Z,14.21
2022-10-15T18:29:11.262Z,14.13
2022-10-15T18:31:47.271Z,14.09
2022-10-15T18:34:22.293Z,14.08
2022-10-15T18:36:57.539Z,14.13
2022-10-15T18:39:29.417Z,14.14
2022-10-15T18:42:02.638Z,14.06
2022-10-15T18:44:32.202Z,14.13
2022-10-15T18:47:03.599Z,14.17
2022-10-15T18:49:43.381Z,14.13
2022-10-15T18:52:22.006Z,14.06
2022-10-15T18:55:06.355Z,14.14
2022-10-15T18:57:43.719Z,14.14
2022-10-15T19:00:25.302Z,14.13
2022-10-15T19:02:58.674Z,14.02
2022-10-15T19:05:38.101Z,14.04
2022-10-15T19:08:20.788Z,13.92
2022-10-15T19:10:52.995Z,13.84
2022-10-15T19:13:33.316Z,13.81
2022-10-15T19:16:14.271Z,13.82
2022-10-15T19:18:57.107Z,13.84
2022-10-15T19:21:27.201Z,13.82
2022-10-15T19:24:02.094Z,13.84
2022-10-15T19:26:36.070Z,13.78
2022-10-15T19:29:23.121Z,13.78
2022-10-15T19:32:03.279Z,13.65
2022-10-15T19:34:40.978Z,13.64
2022-10-15T19:37:19.771Z,13.70
2022-10-15T19:40:00.634Z,13.68
2022-10-15T19:42:31.399Z,13.70
2022-10-15T19:45:09.872Z,13.76
2022-10-15T19:47:47.269Z,13.78
2022-10-15T19:50:19.555Z,13.75
2022-10-15T19:52:50.954Z,13.72
2022-10-15T19:55:21.755Z,13.76
2022-10-15T19:57:54.419Z,13.77
2022-10-15T20:00:26.544Z,13.78
2022-10-15T20:03:02.417Z,13.73
2022-10-15T20:05:34.073Z,13.79
2022-10-15T20:08:08.285Z,13.81
2022-10-15T20:10:47.481Z,13.77
2022-10-15T20:13:22.457Z,13.77
2022-10-15T20:15:57.918Z,13.80
2022-10-15T20:18:32.814Z,13.74
2022-10-15T20:21:16.050Z,13.71
2022-10-15T20:23:59.640Z,13.64
2022-10-15T20:26:33.928Z,13.68
2022-10-15T20:29:09.659Z,13.68
2022-10-15T20:31:46.091Z,13.93
2022-10-15T20:34:24.044Z,13.87
2022-10-15T20:37:01.843Z,13.86
2022-10-15T20:39:51.336Z,13.86
2022-10-15T20:42:29.725Z,13.74
2022-10-15T20:44:59.311Z,13.71
2022-10-15T20:47:35.414Z,13.66
2022-10-15T20:50:17.869Z,13.62
2022-10-15T20:52:53.754Z,13.59
2022-10-15T20:55:23.992Z,13.59
2022-10-15T20:58:01.665Z,13.52
2022-10-15T21:00:37.075Z,13.38
2022-10-15T21:03:15.236Z,13.40
2022-10-15T21:05:52.804Z,13.52
2022-10-15T21:08:30.907Z,13.29
2022-10-15T21:11:06.093Z,13.33
2022-10-15T21:13:42.412Z,13.34
2022-10-15T21:16:23.347Z,13.36
2022-10-15T21:19:00.992Z,13.49
2022-10-15T21:21:38.155Z,13.55
2022-10-15T21:24:15.250Z,13.46
2022-10-15T21:26:52.581Z,13.41
2022-10-15T21:29:22.566Z,13.37
2022-10-15T21:31:54.691Z,13.29
2022-10-15T21:34:27.920Z,13.25
2022-10-15T21:37:03.293Z,13.22
2022-10-15T21:39:35.574Z,13.20
2022-10-15T21:42:12.691Z,13.11
2022-10-15T21:44:44.933Z,13.05
2022-10-15T21:47:15.451Z,13.01
2022-10-15T21:49:50.639Z,13.07
2022-10-15T21:52:29.453Z,13.02
2022-10-15T21:55:08.214Z,13.03
2022-10-15T21:57:43.050Z,13.07
2022-10-15T22:00:18.916Z,13.01
2022-10-15T22:02:51.917Z,13.04
2022-10-15T22:05:32.577Z,13.06
2022-10-15T22:08:04.969Z,13.10
2022-10-15T22:10:37.890Z,13.12
2022-10-15T22:13:16.262Z,13.14
2022-10-15T22:15:54.350Z,13.09
2022-10-15T22:18:28.257Z,13.11
2022-10-15T22:21:13.765Z,13.18
2022-10-15T22:23:50.128Z,13.22
2022-10-15T22:26:30.464Z,13.23
2022-10-15T22:29:07.895Z,13.19
2022-10-15T22:31:40.736Z,13.27
2022-10-15T22:34:18.607Z,13.30
2022-10-15T22:36:53.656Z,13.20
2022-10-15T22:39:31.448Z,13.18
2022-10-15T22:42:12.360Z,13.15
2022-10-15T22:44:46.274Z,13.14
2022-10-15T22:47:21.119Z,13.14
2022-10-15T22:49:57.219Z,13.15
2022-10-15T22:52:37.655Z,13.10
2022-10-15T22:55:16.479Z,13.04
2022-10-15T22:58:02.754Z,13.03
2022-10-15T23:00:37.129Z,13.00
2022-10-15T23:03:08.471Z,13.01
2022-10-15T23:05:43.445Z,12.95
2022-10-15T23:08:18.725Z,12.97
2022-10-15T23:10:57.481Z,12.99
2022-10-15T23:13:33.322Z,12.96
2022-10-15T23:16:17.934Z,12.94
2022-10-15T23:18:51.450Z,12.97
2022-10-15T23:21:35.828Z,12.90
2022-10-15T23:24:06.382Z,12.87
2022-10-15T23:26:39.220Z,12.86
2022-10-15T23:29:15.443Z,12.84
2022-10-15T23:31:48.345Z,12.78
2022-10-15T23:34:23.326Z,12.81
2022-10-15T23:36:58.930Z,12.90
2022-10-15T23:39:31.024Z,12.99
2022-10-15T23:42:08.869Z,13.12
2022-10-15T23:44:40.805Z,13.08
2022-10-15T23:47:13.414Z,13.22
2022-10-15T23:49:51.562Z,13.22
2022-10-15T23:52:26.400Z,13.34
2022-10-15T23:55:03.724Z,13.34
2022-10-15T23:57:33.290Z,13.48
